Terminal Aerodrome Forecast
Issued by NWS Sioux Falls, SD

Home | Current Version | Previous Version | Text Only | Print | Product List | Glossary On
Versions: 1 2 3 4 5 6 7 8 9 10 11 12
543
FTUS43 KFSD 091724
TAFFSD
TAF
KFSD 091724Z 0918/1018 VRB03KT P6SM BKN070
     FM092200 14003KT 6SM -SN OVC030
     FM100300 VRB03KT P6SM OVC035
     FM101300 10007KT P6SM OVC045
     FM101500 11009KT 3SM -SN OVC030
     FM101700 11010KT 1SM -SN OVC015=

USA.gov is the U.S. government's official web portal to all federal, state and local government web resources and services.